Time;durP1;ratioP1;P1;durP2;ratioP2;P2;SDS_P1;SDS_P2;PMS_P1;PMS_P2;Temp;Humidity;BMP_temperature;BMP_pressure;BME280_temperature;BME280_humidity;BME280_pressure;Samples;Min_cycle;Max_cycle;Signal;HPM_P1;HPM_P2
2023/09/16 00:00:35;;;;;;;5.25;4.50;;;;;;;20.23;91.41;101047.03;4895966;29;20059;-71
2023/09/16 00:03:06;;;;;;;5.65;5.03;;;;;;;20.21;91.79;101043.78;4897200;29;20071;-71
2023/09/16 00:05:38;;;;;;;6.85;4.88;;;;;;;20.20;91.89;101044.09;4896180;29;20052;-71
2023/09/16 00:08:06;;;;;;;5.47;4.88;;;;;;;20.25;92.72;101049.47;4896137;29;20060;-71
2023/09/16 00:10:34;;;;;;;6.78;5.28;;;;;;;20.20;92.52;101047.72;4896172;29;20053;-71
2023/09/16 00:13:03;;;;;;;6.30;4.78;;;;;;;20.09;93.64;101052.81;4895857;29;20090;-71
2023/09/16 00:15:31;;;;;;;6.53;4.63;;;;;;;20.05;93.72;101057.44;4896849;29;20056;-71
2023/09/16 00:18:00;;;;;;;5.72;4.72;;;;;;;20.07;93.35;101060.69;4896174;29;20061;-71
2023/09/16 00:20:28;;;;;;;5.07;4.53;;;;;;;20.01;93.20;101062.81;4896211;29;20063;-71
2023/09/16 00:22:57;;;;;;;5.47;4.93;;;;;;;20.00;92.73;101050.06;4897095;29;20037;-71
2023/09/16 00:25:25;;;;;;;6.28;4.72;;;;;;;19.93;94.27;101054.47;4886789;29;20049;-71
2023/09/16 00:27:52;;;;;;;5.85;4.55;;;;;;;20.04;93.86;101055.78;4877800;29;20052;-71
2023/09/16 00:30:21;;;;;;;6.10;4.72;;;;;;;19.97;94.77;101049.94;4877505;29;20060;-71
2023/09/16 00:32:48;;;;;;;5.97;4.93;;;;;;;19.94;93.25;101056.94;4860809;29;20052;-71
2023/09/16 00:35:16;;;;;;;5.53;4.60;;;;;;;19.86;94.51;101060.56;4882274;29;20041;-71
2023/09/16 00:37:46;;;;;;;6.07;4.78;;;;;;;19.86;93.56;101066.13;4881664;29;20052;-71
2023/09/16 00:40:15;;;;;;;6.30;4.70;;;;;;;19.80;94.12;101062.69;4881876;29;20057;-71
2023/09/16 00:42:42;;;;;;;5.32;4.72;;;;;;;19.84;93.71;101063.66;4864129;29;20052;-71
2023/09/16 00:45:10;;;;;;;9.20;5.35;;;;;;;19.81;93.82;101072.69;4879982;29;20507;-71
2023/09/16 00:47:40;;;;;;;8.13;5.80;;;;;;;19.79;95.13;101061.06;4881245;29;20045;-71
2023/09/16 00:50:11;;;;;;;7.28;5.13;;;;;;;19.80;95.21;101059.91;4879996;29;20068;-71
2023/09/16 00:52:44;;;;;;;6.22;5.63;;;;;;;19.85;95.12;101064.50;4881427;29;20056;-71
2023/09/16 00:55:12;;;;;;;7.95;5.95;;;;;;;19.84;95.56;101062.88;4881569;29;20053;-71
2023/09/16 00:57:46;;;;;;;7.05;4.97;;;;;;;19.87;95.69;101068.56;4880875;29;20053;-71
2023/09/16 01:00:16;;;;;;;;;;;;;;;19.83;96.20;101062.03;4882026;29;20057;-71
2023/09/16 01:02:44;;;;;;;6.53;4.80;;;;;;;19.83;95.30;101072.31;4881586;29;19923;-71
2023/09/16 01:05:15;;;;;;;8.07;5.53;;;;;;;19.78;96.19;101067.78;4881637;29;20488;-71
2023/09/16 01:07:46;;;;;;;7.72;5.40;;;;;;;19.81;94.75;101061.56;4880579;29;20057;-71
2023/09/16 01:10:15;;;;;;;6.25;5.05;;;;;;;19.91;95.20;101062.34;4880856;29;20060;-71
2023/09/16 01:12:48;;;;;;;6.57;5.28;;;;;;;19.85;95.83;101068.06;4863882;29;20060;-71
2023/09/16 01:15:17;;;;;;;8.43;5.85;;;;;;;19.86;94.93;101058.59;4880603;29;20057;-71
2023/09/16 01:18:03;;;;;;;6.00;5.03;;;;;;;19.87;95.66;101067.75;4863953;29;20108;-71
2023/09/16 01:20:32;;;;;;;6.10;5.15;;;;;;;19.84;95.35;101063.66;4880742;29;20408;-71
2023/09/16 01:23:00;;;;;;;8.90;5.50;;;;;;;19.84;96.01;101062.88;4880478;29;20060;-71
2023/09/16 01:25:29;;;;;;;6.60;5.05;;;;;;;19.79;96.26;101063.03;4881261;29;20060;-71
2023/09/16 01:27:57;;;;;;;6.90;5.32;;;;;;;19.77;96.17;101065.31;4881173;29;20053;-71
2023/09/16 01:30:27;;;;;;;7.60;5.70;;;;;;;19.83;96.12;101062.03;4880712;29;20057;-71
2023/09/16 01:33:22;;;;;;;7.60;6.07;;;;;;;19.88;96.45;101070.19;4880015;29;20064;-71
2023/09/16 01:36:05;;;;;;;8.05;5.93;;;;;;;19.90;96.07;101066.25;4880300;29;20488;-71
2023/09/16 01:38:37;;;;;;;7.30;5.00;;;;;;;19.96;95.91;101067.75;4879981;29;20070;-71
2023/09/16 01:41:07;;;;;;;8.35;5.68;;;;;;;19.96;94.98;101070.53;4879507;29;20057;-71
2023/09/16 01:43:37;;;;;;;6.22;5.60;;;;;;;20.11;94.40;101071.94;4880308;29;20508;-71
2023/09/16 01:46:08;;;;;;;7.65;5.45;;;;;;;20.05;94.76;101074.09;4879238;29;20061;-71
2023/09/16 01:48:37;;;;;;;6.82;5.18;;;;;;;20.12;94.70;101074.38;4879085;29;20064;-71
2023/09/16 01:51:14;;;;;;;7.25;5.47;;;;;;;20.00;95.06;101074.28;4880356;29;20057;-71
2023/09/16 01:53:42;;;;;;;7.50;6.00;;;;;;;20.00;95.30;101065.94;4880497;29;20049;-71
2023/09/16 01:56:10;;;;;;;6.75;5.45;;;;;;;20.05;95.07;101059.38;4879666;29;20069;-71
2023/09/16 01:58:38;;;;;;;7.15;5.78;;;;;;;20.00;95.26;101061.19;4879482;29;20049;-71
2023/09/16 02:01:11;;;;;;;6.88;5.72;;;;;;;19.96;95.38;101070.53;4879384;29;20065;-71
2023/09/16 02:03:39;;;;;;;7.53;5.15;;;;;;;19.93;96.48;101062.81;4878754;29;20084;-71
2023/09/16 02:06:07;;;;;;;6.38;5.03;;;;;;;19.88;95.52;101061.88;4879872;29;20045;-71
2023/09/16 02:08:35;;;;;;;8.32;5.95;;;;;;;19.94;95.25;101070.00;4878828;29;20061;-71
2023/09/16 02:11:04;;;;;;;7.03;5.80;;;;;;;20.00;95.87;101060.38;4878459;29;20069;-71
2023/09/16 02:13:38;;;;;;;8.32;5.15;;;;;;;20.04;94.47;101063.31;4879786;29;20073;-71
2023/09/16 02:16:06;;;;;;;;;;;;;;;19.95;95.91;101057.75;4879142;29;20053;-71
2023/09/16 02:18:35;;;;;;;6.07;4.93;;;;;;;20.00;95.98;101063.97;4878467;29;19924;-71
2023/09/16 02:21:03;;;;;;;7.90;5.40;;;;;;;19.98;94.83;101062.66;4879675;29;20049;-71
2023/09/16 02:23:31;;;;;;;6.30;4.57;;;;;;;19.96;94.36;101067.75;4879724;29;20057;-71
2023/09/16 02:26:02;;;;;;;7.25;5.15;;;;;;;20.00;95.75;101065.94;4879457;29;20061;-71
2023/09/16 02:28:30;;;;;;;7.82;5.25;;;;;;;20.02;94.81;101063.63;4879297;29;20508;-71
2023/09/16 02:30:58;;;;;;;5.40;4.68;;;;;;;20.08;94.05;101059.53;4878225;29;20056;-71
2023/09/16 02:33:26;;;;;;;6.13;4.70;;;;;;;20.29;92.22;101056.00;4878177;29;20056;-71
2023/09/16 02:35:54;;;;;;;6.10;5.07;;;;;;;20.21;92.49;101062.41;4862471;29;20404;-71
2023/09/16 02:38:22;;;;;;;5.68;4.68;;;;;;;20.13;93.37;101048.22;4879977;29;20049;-71
2023/09/16 02:40:50;;;;;;;5.97;5.18;;;;;;;20.00;94.10;101060.38;4879715;29;20605;-71
2023/09/16 02:43:19;;;;;;;7.22;5.05;;;;;;;20.02;94.92;101063.63;4862313;29;20497;-70
2023/09/16 02:45:47;;;;;;;10.35;5.72;;;;;;;19.90;96.27;101057.94;4862681;29;20049;-71
2023/09/16 02:48:18;;;;;;;6.10;5.20;;;;;;;19.88;95.01;101063.81;4879187;29;20511;-71
2023/09/16 02:50:47;;;;;;;5.63;5.05;;;;;;;19.84;95.16;101062.88;4878957;29;20060;-71
2023/09/16 02:53:16;;;;;;;5.85;4.63;;;;;;;19.80;95.57;101070.22;4878839;29;20061;-71
2023/09/16 02:55:44;;;;;;;6.25;5.45;;;;;;;19.77;95.91;101066.16;4861575;29;20053;-71
2023/09/16 02:58:14;;;;;;;7.75;4.97;;;;;;;19.76;96.35;101064.53;4877157;29;20060;-71
2023/09/16 03:00:46;;;;;;;9.70;5.05;;;;;;;19.75;97.65;101068.44;4878740;29;20057;-71
2023/09/16 03:03:15;;;;;;;6.65;5.10;;;;;;;19.74;97.71;101062.06;4877576;29;20053;-71
2023/09/16 03:05:45;;;;;;;5.50;4.45;;;;;;;19.65;97.96;101052.13;4878811;29;20056;-71
2023/09/16 03:08:14;;;;;;;5.68;5.07;;;;;;;19.79;96.74;101057.50;4877950;29;20056;-71
2023/09/16 03:10:45;;;;;;;9.30;5.28;;;;;;;19.83;96.47;101050.94;4861773;29;20053;-71
2023/09/16 03:13:14;;;;;;;7.47;5.05;;;;;;;19.76;97.21;101049.81;4878284;29;20049;-71
2023/09/16 03:15:47;;;;;;;7.25;5.40;;;;;;;19.64;98.04;101050.50;4878946;29;20049;-71
2023/09/16 03:18:17;;;;;;;7.57;5.32;;;;;;;19.56;99.67;101047.41;4861750;29;20064;-71
2023/09/16 03:20:45;;;;;;;8.75;5.82;;;;;;;19.53;99.80;101045.31;4877276;29;20064;-71
2023/09/16 03:23:13;;;;;;;7.15;5.40;;;;;;;19.48;99.59;101039.91;4877941;29;20408;-71
2023/09/16 03:25:41;;;;;;;6.70;5.50;;;;;;;19.44;99.19;101038.94;4876753;29;20064;-71
2023/09/16 03:28:10;;;;;;;7.22;5.05;;;;;;;19.29;99.67;101043.88;4861450;29;20053;-71
2023/09/16 03:30:38;;;;;;;8.00;5.28;;;;;;;19.36;99.42;101053.66;4878149;29;20052;-71
2023/09/16 03:33:08;;;;;;;7.38;5.40;;;;;;;19.30;100.00;101048.28;4876882;29;20065;-71
2023/09/16 03:35:38;;;;;;;6.30;5.00;;;;;;;19.33;99.73;101044.84;4861706;29;20060;-71
2023/09/16 03:38:06;;;;;;;5.88;5.28;;;;;;;19.32;99.93;101043.19;4861338;29;20064;-71
2023/09/16 03:40:35;;;;;;;6.43;5.32;;;;;;;19.36;100.00;101050.88;4861150;29;20409;-71
2023/09/16 03:43:04;;;;;;;5.70;4.65;;;;;;;19.43;99.76;101051.19;4877078;29;20602;-71
2023/09/16 03:45:32;;;;;;;9.13;5.05;;;;;;;19.61;98.53;101050.00;4877708;29;20511;-71
2023/09/16 03:48:02;;;;;;;5.38;4.88;;;;;;;19.59;99.76;101057.84;4877494;29;20057;-71
2023/09/16 03:50:32;;;;;;;6.25;5.15;;;;;;;19.64;97.57;101050.50;4876803;29;20061;-71
2023/09/16 03:53:00;;;;;;;5.93;4.97;;;;;;;19.63;98.58;101046.06;4877139;29;20135;-71
2023/09/16 03:55:35;;;;;;;6.63;5.25;;;;;;;19.66;98.70;101056.53;4876778;29;20523;-71
2023/09/16 03:58:05;;;;;;;10.38;5.32;;;;;;;19.78;97.53;101058.63;4861850;29;20413;-71
2023/09/16 04:00:33;;;;;;;8.45;5.82;;;;;;;19.66;97.73;101048.22;4876998;29;20073;-71
2023/09/16 04:03:01;;;;;;;8.27;5.95;;;;;;;19.59;98.67;101045.94;4876748;29;20396;-71
2023/09/16 04:05:29;;;;;;;6.95;5.13;;;;;;;19.68;98.95;101048.69;4861462;29;20056;-71
2023/09/16 04:07:57;;;;;;;8.30;5.78;;;;;;;19.67;98.51;101050.66;4876849;29;20064;-71
2023/09/16 04:10:25;;;;;;;8.75;5.93;;;;;;;19.82;97.42;101045.69;4877738;29;20088;-71
2023/09/16 04:12:53;;;;;;;8.02;5.93;;;;;;;19.91;96.93;101040.94;4877520;29;20068;-71
2023/09/16 04:15:21;;;;;;;9.23;5.40;;;;;;;19.93;96.91;101049.75;4876558;29;20064;-71
2023/09/16 04:17:51;;;;;;;6.78;5.95;;;;;;;19.93;96.88;101040.59;4878249;29;20408;-71
2023/09/16 04:20:19;;;;;;;8.98;6.22;;;;;;;19.87;96.53;101053.84;4860830;29;20053;-70
2023/09/16 04:22:47;;;;;;;7.70;5.53;;;;;;;19.80;98.55;101051.59;4860776;29;20064;-70
2023/09/16 04:25:15;;;;;;;7.38;6.05;;;;;;;19.84;98.18;101046.22;4861251;29;20057;-72
2023/09/16 04:27:43;;;;;;;6.97;4.97;;;;;;;19.82;98.16;101045.69;4876152;29;20063;-71
2023/09/16 04:30:11;;;;;;;7.50;6.18;;;;;;;19.88;98.06;101036.88;4876843;29;20053;-71
2023/09/16 04:32:40;;;;;;;7.85;5.57;;;;;;;19.92;97.46;101033.41;4860310;29;20518;-71
2023/09/16 04:35:09;;;;;;;5.60;4.75;;;;;;;19.88;96.81;101038.81;4877982;29;20052;-71
2023/09/16 04:37:37;;;;;;;6.53;5.13;;;;;;;20.00;96.03;101032.59;4860827;29;20049;-70
2023/09/16 04:40:12;;;;;;;8.63;5.38;;;;;;;19.88;95.79;101047.97;4877338;29;20531;-71
2023/09/16 04:42:40;;;;;;;6.43;4.78;;;;;;;19.96;96.91;101045.53;4876487;29;20049;-71
